createdAt,value
2023-03-29T00:00:08.380Z,189.26
2023-03-29T00:01:08.360Z,189.51
2023-03-29T00:02:08.399Z,188.27
2023-03-29T00:03:08.588Z,188.89
2023-03-29T00:04:08.417Z,188.32
2023-03-29T00:05:08.337Z,188.19
2023-03-29T00:06:08.338Z,188.44
2023-03-29T00:07:08.345Z,188.48
2023-03-29T00:08:08.324Z,188.78
2023-03-29T00:09:08.314Z,188.78
2023-03-29T00:10:08.316Z,188.22
2023-03-29T00:11:08.310Z,187.69
2023-03-29T00:12:08.305Z,187.75
2023-03-29T00:13:08.289Z,187.12
2023-03-29T00:14:08.283Z,185.29
2023-03-29T00:15:08.306Z,186.58
2023-03-29T00:16:08.285Z,186.46
2023-03-29T00:17:08.329Z,186.53
2023-03-29T00:18:08.278Z,187.76
2023-03-29T00:19:08.247Z,186.83
2023-03-29T00:20:08.259Z,187.48
2023-03-29T00:21:08.256Z,185.48
2023-03-29T00:22:08.238Z,186.88
2023-03-29T00:23:08.231Z,187.49
2023-03-29T00:24:08.216Z,187.89
2023-03-29T00:25:08.276Z,187.87
2023-03-29T00:26:08.523Z,187.08
2023-03-29T00:27:08.217Z,186.75
2023-03-29T00:28:08.211Z,185.73
2023-03-29T00:29:08.204Z,187.08
2023-03-29T00:30:08.197Z,187.53
2023-03-29T00:31:08.256Z,187.15
2023-03-29T00:32:08.187Z,184.68
2023-03-29T00:33:08.233Z,186.76
2023-03-29T00:34:08.153Z,187.88
2023-03-29T00:35:08.149Z,184.82
2023-03-29T00:36:08.180Z,186.16
2023-03-29T00:37:08.159Z,185.86
2023-03-29T00:38:08.118Z,185.63
2023-03-29T00:39:08.115Z,187.91
2023-03-29T00:40:08.112Z,186.04
2023-03-29T00:41:08.105Z,185.52
2023-03-29T00:42:08.118Z,186.97
2023-03-29T00:43:08.133Z,186.18
2023-03-29T00:44:08.099Z,186.20
2023-03-29T00:45:08.100Z,184.85
2023-03-29T00:46:08.152Z,187.09
2023-03-29T00:47:08.077Z,186.84
2023-03-29T00:48:08.138Z,186.28
2023-03-29T00:49:08.076Z,185.31
2023-03-29T00:50:08.050Z,185.41
2023-03-29T00:51:09.877Z,184.89
2023-03-29T00:52:08.023Z,184.70
2023-03-29T00:53:08.041Z,184.92
2023-03-29T00:54:08.027Z,185.06
2023-03-29T00:55:08.021Z,183.33
2023-03-29T00:56:07.998Z,184.92
2023-03-29T00:57:08.013Z,185.66
2023-03-29T00:58:07.998Z,185.57
2023-03-29T00:59:08.001Z,186.09
2023-03-29T01:00:07.993Z,185.72
2023-03-29T01:01:07.985Z,186.10
2023-03-29T01:02:08.014Z,183.69
2023-03-29T01:03:08.104Z,185.24
2023-03-29T01:04:08.012Z,185.93
2023-03-29T01:05:07.949Z,182.73
2023-03-29T01:06:07.969Z,184.70
2023-03-29T01:07:08.013Z,183.60
2023-03-29T01:08:07.939Z,184.21
2023-03-29T01:09:07.945Z,183.64
2023-03-29T01:10:07.932Z,183.68
2023-03-29T01:11:07.925Z,183.67
2023-03-29T01:12:07.926Z,184.27
2023-03-29T01:13:07.913Z,184.14
2023-03-29T01:14:07.898Z,181.65
2023-03-29T01:15:07.905Z,181.30
2023-03-29T01:16:07.939Z,182.38
2023-03-29T01:17:07.888Z,180.00
2023-03-29T01:18:07.904Z,182.20
2023-03-29T01:19:07.877Z,182.63
2023-03-29T01:20:07.858Z,183.64
2023-03-29T01:21:07.855Z,183.38
2023-03-29T01:22:07.846Z,184.01
2023-03-29T01:23:07.834Z,182.79
2023-03-29T01:24:07.849Z,182.35
2023-03-29T01:25:07.852Z,183.74
2023-03-29T01:26:07.832Z,182.90
2023-03-29T01:27:07.834Z,180.59
2023-03-29T01:28:07.834Z,182.85
2023-03-29T01:29:07.839Z,180.63
2023-03-29T01:30:07.829Z,181.24
2023-03-29T01:31:07.834Z,180.88
2023-03-29T01:32:07.926Z,182.21
2023-03-29T01:33:07.914Z,177.73
2023-03-29T01:34:07.817Z,182.07
2023-03-29T01:35:07.840Z,183.52
2023-03-29T01:36:07.896Z,176.38
2023-03-29T01:37:07.841Z,179.60
2023-03-29T01:38:07.830Z,179.05
2023-03-29T01:39:07.817Z,180.68
2023-03-29T01:40:07.833Z,179.08
2023-03-29T01:41:07.814Z,179.55
2023-03-29T01:42:07.795Z,183.13
2023-03-29T01:43:07.814Z,179.26
2023-03-29T01:44:07.793Z,177.48
2023-03-29T01:45:07.809Z,179.96
2023-03-29T01:46:07.811Z,179.54
2023-03-29T01:47:07.776Z,180.50
2023-03-29T01:48:07.774Z,181.18
2023-03-29T01:49:07.763Z,177.89
2023-03-29T01:50:07.778Z,178.98
2023-03-29T01:51:07.760Z,180.03
2023-03-29T01:52:07.760Z,177.72
2023-03-29T01:53:07.774Z,179.83
2023-03-29T01:54:07.767Z,178.22
2023-03-29T01:55:07.763Z,178.14
2023-03-29T01:56:07.756Z,179.40
2023-03-29T01:57:07.783Z,178.66
2023-03-29T01:58:07.724Z,179.64
2023-03-29T01:59:07.726Z,179.21
2023-03-29T02:00:07.721Z,181.09
2023-03-29T02:01:07.798Z,179.38
2023-03-29T02:02:07.794Z,182.89
2023-03-29T02:03:07.847Z,181.47
2023-03-29T02:04:07.710Z,183.04
2023-03-29T02:05:07.721Z,183.16
2023-03-29T02:06:07.711Z,180.17
2023-03-29T02:07:07.697Z,181.20
2023-03-29T02:08:07.702Z,180.73
2023-03-29T02:09:07.734Z,181.70
2023-03-29T02:10:07.711Z,181.49
2023-03-29T02:11:07.744Z,180.78
2023-03-29T02:12:07.719Z,179.13
2023-03-29T02:13:07.721Z,177.51
2023-03-29T02:14:07.720Z,181.08
2023-03-29T02:15:07.712Z,178.80
2023-03-29T02:16:07.734Z,178.17
2023-03-29T02:17:07.709Z,180.55
2023-03-29T02:18:07.780Z,181.39
2023-03-29T02:19:07.819Z,179.95
2023-03-29T02:20:07.708Z,180.01
2023-03-29T02:21:07.693Z,180.20
2023-03-29T02:22:07.683Z,179.91
2023-03-29T02:23:07.682Z,179.63
2023-03-29T02:24:07.692Z,180.33
2023-03-29T02:25:07.681Z,181.97
2023-03-29T02:26:07.675Z,182.10
2023-03-29T02:27:07.686Z,182.45
2023-03-29T02:28:07.648Z,181.19
2023-03-29T02:29:07.666Z,181.09
2023-03-29T02:30:07.681Z,181.66
2023-03-29T02:31:07.682Z,181.55
2023-03-29T02:32:07.657Z,181.78
2023-03-29T02:33:07.689Z,181.11
2023-03-29T02:34:07.704Z,181.53
2023-03-29T02:35:07.748Z,181.05
2023-03-29T02:36:07.787Z,181.32
2023-03-29T02:37:07.706Z,181.67
2023-03-29T02:38:07.745Z,181.81
2023-03-29T02:39:07.713Z,180.42
2023-03-29T02:40:07.712Z,179.12
2023-03-29T02:41:07.702Z,180.92
2023-03-29T02:42:07.707Z,181.09
2023-03-29T02:43:07.752Z,179.91
2023-03-29T02:44:07.740Z,180.20
2023-03-29T02:45:07.748Z,179.45
2023-03-29T02:46:07.806Z,181.37
2023-03-29T02:47:07.748Z,180.47
2023-03-29T02:48:07.828Z,180.84
2023-03-29T02:49:07.753Z,181.44
2023-03-29T02:50:07.741Z,182.15
2023-03-29T02:51:07.754Z,180.70
2023-03-29T02:52:07.851Z,180.90
2023-03-29T02:53:07.749Z,180.72
2023-03-29T02:54:07.732Z,180.03
2023-03-29T02:55:07.727Z,181.19
2023-03-29T02:56:07.722Z,180.52
2023-03-29T02:57:07.775Z,181.33
2023-03-29T02:58:07.734Z,180.61
2023-03-29T02:59:07.718Z,180.51
2023-03-29T03:00:07.722Z,180.76
2023-03-29T03:01:07.758Z,180.33
2023-03-29T03:02:07.785Z,180.26
2023-03-29T03:03:07.953Z,181.09
2023-03-29T03:04:07.769Z,180.92
2023-03-29T03:05:07.744Z,180.71
2023-03-29T03:06:07.721Z,180.24
2023-03-29T03:07:07.716Z,179.93
2023-03-29T03:08:07.756Z,179.84
2023-03-29T03:09:07.797Z,180.17
2023-03-29T03:10:07.779Z,180.08
2023-03-29T03:11:07.796Z,181.02
2023-03-29T03:12:07.840Z,179.83
2023-03-29T03:13:07.834Z,180.48
2023-03-29T03:14:07.839Z,180.64
2023-03-29T03:15:07.843Z,180.14
2023-03-29T03:16:07.939Z,180.62
2023-03-29T03:17:07.855Z,180.56
2023-03-29T03:18:07.946Z,180.11
2023-03-29T03:19:07.913Z,180.10
2023-03-29T03:20:07.934Z,179.98
2023-03-29T03:21:07.961Z,180.73
2023-03-29T03:22:08.037Z,180.92
2023-03-29T03:23:08.012Z,180.26
2023-03-29T03:24:08.019Z,180.95
2023-03-29T03:25:08.054Z,180.47
2023-03-29T03:26:08.088Z,180.02
2023-03-29T03:27:08.117Z,180.60
2023-03-29T03:28:08.145Z,179.71
2023-03-29T03:29:08.211Z,180.53
2023-03-29T03:30:08.224Z,179.49
2023-03-29T03:31:08.320Z,179.58
2023-03-29T03:32:08.420Z,179.78
2023-03-29T03:33:08.349Z,179.39
2023-03-29T03:34:08.363Z,179.54
2023-03-29T03:35:08.393Z,179.21
2023-03-29T03:36:08.468Z,178.91
2023-03-29T03:37:08.477Z,178.97
2023-03-29T03:38:08.486Z,179.54
2023-03-29T03:39:08.526Z,179.76
2023-03-29T03:40:08.542Z,179.14
2023-03-29T03:41:08.550Z,179.39
2023-03-29T03:42:08.668Z,179.19
2023-03-29T03:43:08.631Z,180.00
2023-03-29T03:44:08.660Z,179.73
2023-03-29T03:45:08.662Z,178.52
2023-03-29T03:46:08.764Z,179.47
2023-03-29T03:47:08.733Z,179.51
2023-03-29T03:48:08.801Z,178.25
2023-03-29T03:49:08.797Z,179.26
2023-03-29T03:50:08.827Z,178.93
2023-03-29T03:51:08.861Z,178.68
2023-03-29T03:52:08.866Z,178.42
2023-03-29T03:53:08.880Z,178.89
2023-03-29T03:54:08.899Z,178.33
2023-03-29T03:55:08.941Z,177.53
2023-03-29T03:56:09.164Z,178.34
2023-03-29T03:57:09.123Z,178.75
2023-03-29T03:58:09.025Z,178.59
2023-03-29T03:59:09.074Z,177.76
2023-03-29T04:00:09.098Z,178.59
2023-03-29T04:01:09.114Z,178.29
2023-03-29T04:02:09.159Z,179.02
2023-03-29T04:03:09.334Z,178.62
2023-03-29T04:04:09.234Z,178.85
2023-03-29T04:05:09.198Z,178.35
2023-03-29T04:06:09.247Z,179.05
2023-03-29T04:07:09.293Z,176.24
2023-03-29T04:08:09.329Z,176.98
2023-03-29T04:09:09.380Z,178.34
2023-03-29T04:10:09.399Z,177.08
2023-03-29T04:11:09.440Z,178.04
2023-03-29T04:12:09.493Z,177.46
2023-03-29T04:13:09.525Z,178.60
2023-03-29T04:14:09.595Z,177.73
2023-03-29T04:15:09.630Z,177.54
2023-03-29T04:16:09.728Z,177.83
2023-03-29T04:17:09.708Z,177.80
2023-03-29T04:18:09.823Z,177.75
2023-03-29T04:19:09.788Z,177.18
2023-03-29T04:20:09.823Z,178.15
2023-03-29T04:21:09.854Z,178.04
2023-03-29T04:22:09.909Z,177.48
2023-03-29T04:23:09.940Z,178.07
2023-03-29T04:24:10.017Z,178.62
2023-03-29T04:25:10.105Z,177.38
2023-03-29T04:26:10.118Z,177.39
2023-03-29T04:27:10.117Z,176.63
2023-03-29T04:28:10.176Z,178.07
2023-03-29T04:29:10.200Z,175.93
2023-03-29T04:30:10.249Z,176.88
2023-03-29T04:31:10.352Z,176.68
2023-03-29T04:32:10.297Z,176.87
2023-03-29T04:33:10.447Z,176.33
2023-03-29T04:34:10.344Z,177.17
2023-03-29T04:35:10.410Z,177.16
2023-03-29T04:36:10.470Z,177.28
2023-03-29T04:37:10.578Z,176.86
2023-03-29T04:38:10.504Z,175.46
2023-03-29T04:39:10.546Z,175.92
2023-03-29T04:40:10.580Z,174.14
2023-03-29T04:41:10.614Z,175.43
2023-03-29T04:42:10.672Z,176.55
2023-03-29T04:43:10.707Z,176.91
2023-03-29T04:44:10.725Z,176.55
2023-03-29T04:45:10.872Z,176.99
2023-03-29T04:46:10.885Z,176.66
2023-03-29T04:47:10.848Z,176.30
2023-03-29T04:48:10.937Z,175.74
2023-03-29T04:49:10.952Z,175.75
2023-03-29T04:50:11.002Z,176.34
2023-03-29T04:51:11.060Z,176.57
2023-03-29T04:52:11.095Z,175.68
2023-03-29T04:53:11.167Z,175.89
2023-03-29T04:54:11.240Z,175.58
2023-03-29T04:55:11.269Z,164.08
2023-03-29T04:56:11.314Z,161.25
2023-03-29T04:57:11.428Z,168.57
2023-03-29T04:58:11.434Z,167.74
2023-03-29T04:59:11.509Z,170.08
2023-03-29T05:00:11.547Z,171.27
2023-03-29T05:01:11.609Z,169.88
2023-03-29T05:02:11.670Z,170.16
2023-03-29T05:03:11.737Z,160.88
2023-03-29T05:04:12.853Z,151.98
2023-03-29T05:05:11.663Z,161.82
2023-03-29T05:06:11.681Z,166.87
2023-03-29T05:07:11.709Z,168.79
2023-03-29T05:08:11.746Z,169.63
2023-03-29T05:09:11.825Z,171.24
2023-03-29T05:10:11.878Z,172.24
2023-03-29T05:11:11.923Z,172.88
2023-03-29T05:12:12.011Z,173.33
2023-03-29T05:13:12.072Z,174.25
2023-03-29T05:14:12.129Z,174.22
2023-03-29T05:15:12.175Z,174.58
2023-03-29T05:16:12.262Z,174.42
2023-03-29T05:17:12.306Z,174.19
2023-03-29T05:18:12.390Z,173.98
2023-03-29T05:19:12.402Z,168.66
2023-03-29T05:20:12.477Z,167.30
2023-03-29T05:21:12.498Z,179.96
2023-03-29T05:22:12.568Z,218.53
2023-03-29T05:23:12.589Z,267.57
2023-03-29T05:24:12.654Z,283.69
2023-03-29T05:25:12.718Z,267.54
2023-03-29T05:26:12.767Z,243.53
2023-03-29T05:27:12.837Z,234.00
2023-03-29T05:28:12.855Z,183.35
2023-03-29T05:29:12.928Z,179.91
2023-03-29T05:30:13.338Z,167.74
2023-03-29T05:31:14.202Z,160.96
2023-03-29T05:32:13.066Z,161.17
2023-03-29T05:33:13.086Z,157.92
2023-03-29T05:34:13.036Z,152.65
2023-03-29T05:35:13.016Z,150.99
2023-03-29T05:36:13.037Z,148.74
2023-03-29T05:37:13.013Z,144.08
2023-03-29T05:38:12.991Z,145.87
2023-03-29T05:39:13.000Z,143.71
2023-03-29T05:40:13.343Z,144.45
2023-03-29T05:41:12.973Z,146.07
2023-03-29T05:42:12.987Z,150.13
2023-03-29T05:43:12.976Z,154.25
2023-03-29T05:44:12.969Z,160.72
2023-03-29T05:45:12.958Z,158.35
2023-03-29T05:46:12.975Z,162.77
2023-03-29T05:47:12.945Z,169.04
2023-03-29T05:48:12.944Z,328.57
2023-03-29T05:49:12.932Z,354.24
2023-03-29T05:50:12.920Z,389.14
2023-03-29T05:51:12.939Z,350.44
2023-03-29T05:52:12.905Z,356.91
2023-03-29T05:53:12.913Z,301.75
2023-03-29T05:54:12.906Z,248.55
2023-03-29T05:55:12.887Z,225.90
2023-03-29T05:56:12.901Z,192.32
2023-03-29T05:57:12.894Z,198.36
2023-03-29T05:58:12.866Z,209.01
2023-03-29T05:59:12.858Z,214.94
2023-03-29T06:00:12.853Z,179.30
2023-03-29T06:01:12.872Z,171.38
2023-03-29T06:02:12.873Z,177.75
2023-03-29T06:03:20.274Z,175.59
2023-03-29T06:04:13.926Z,176.14
2023-03-29T06:05:12.835Z,179.30
2023-03-29T06:06:12.834Z,179.61
2023-03-29T06:07:12.833Z,192.24
2023-03-29T06:08:12.810Z,205.96
2023-03-29T06:09:12.808Z,184.84
2023-03-29T06:10:12.789Z,192.70
2023-03-29T06:11:12.794Z,187.62
2023-03-29T06:12:12.803Z,218.02
2023-03-29T06:13:12.791Z,181.76
2023-03-29T06:14:12.769Z,287.11
2023-03-29T06:15:12.773Z,257.76
2023-03-29T06:16:12.760Z,230.33
2023-03-29T06:17:12.779Z,214.91
2023-03-29T06:18:12.840Z,222.35
2023-03-29T06:19:12.740Z,196.51
2023-03-29T06:20:12.753Z,181.33
2023-03-29T06:21:12.773Z,195.76
2023-03-29T06:22:14.766Z,194.93
2023-03-29T06:23:12.767Z,186.11
2023-03-29T06:24:12.771Z,184.38
2023-03-29T06:25:12.779Z,174.30
2023-03-29T06:26:12.796Z,184.05
2023-03-29T06:27:12.781Z,181.50
2023-03-29T06:28:12.781Z,176.30
2023-03-29T06:29:12.769Z,176.61
2023-03-29T06:30:12.788Z,169.80
2023-03-29T06:31:12.826Z,157.14
2023-03-29T06:32:12.869Z,165.95
2023-03-29T06:33:12.779Z,136.72
2023-03-29T06:34:12.807Z,141.98
2023-03-29T06:35:12.839Z,145.51
2023-03-29T06:36:12.885Z,163.34
2023-03-29T06:37:12.890Z,169.49
2023-03-29T06:38:12.947Z,168.00
2023-03-29T06:39:12.972Z,175.99
2023-03-29T06:40:13.003Z,175.18
2023-03-29T06:41:13.039Z,174.41
2023-03-29T06:42:21.022Z,201.66
2023-03-29T06:43:14.048Z,190.49
2023-03-29T06:44:13.026Z,179.28
2023-03-29T06:45:13.029Z,178.77
2023-03-29T06:46:13.400Z,184.16
2023-03-29T06:47:13.344Z,184.55
2023-03-29T06:48:13.128Z,182.47
2023-03-29T06:49:13.170Z,192.24
2023-03-29T06:50:13.205Z,219.11
2023-03-29T06:51:13.260Z,202.23
2023-03-29T06:52:13.348Z,190.91
2023-03-29T06:53:13.349Z,191.13
2023-03-29T06:54:13.378Z,185.80
2023-03-29T06:55:13.398Z,184.38
2023-03-29T06:56:13.443Z,179.61
2023-03-29T06:57:13.896Z,177.66
2023-03-29T06:58:13.466Z,174.64
2023-03-29T06:59:13.543Z,173.41
2023-03-29T07:00:13.513Z,172.17
2023-03-29T07:01:13.505Z,172.26
2023-03-29T07:02:13.596Z,168.97
2023-03-29T07:03:13.623Z,167.50
2023-03-29T07:04:13.565Z,166.35
2023-03-29T07:05:13.533Z,221.15
2023-03-29T07:06:13.558Z,210.98
2023-03-29T07:07:13.872Z,171.53
2023-03-29T07:08:13.906Z,142.39
2023-03-29T07:09:13.669Z,164.08
2023-03-29T07:10:13.725Z,162.82
2023-03-29T07:11:13.763Z,171.72
2023-03-29T07:12:14.048Z,168.63
2023-03-29T07:13:13.898Z,173.07
2023-03-29T07:14:13.960Z,194.03
2023-03-29T07:15:14.014Z,177.30
2023-03-29T07:16:14.137Z,172.86
2023-03-29T07:17:14.111Z,168.87
2023-03-29T07:18:14.154Z,193.90
2023-03-29T07:19:14.189Z,203.29
2023-03-29T07:20:14.234Z,188.67
2023-03-29T07:21:14.245Z,214.13
2023-03-29T07:22:14.287Z,225.32
2023-03-29T07:23:14.318Z,218.46
2023-03-29T07:24:14.365Z,221.51
2023-03-29T07:25:14.405Z,230.05
2023-03-29T07:26:14.439Z,223.17
2023-03-29T07:27:15.886Z,220.13
2023-03-29T07:28:14.957Z,197.40
2023-03-29T07:29:14.434Z,153.38
2023-03-29T07:30:14.415Z,127.63
2023-03-29T07:31:14.401Z,109.76
2023-03-29T07:32:14.433Z,107.35
2023-03-29T07:33:14.994Z,97.33
2023-03-29T07:34:14.454Z,114.69
2023-03-29T07:35:14.613Z,117.67
2023-03-29T07:36:14.548Z,121.22
2023-03-29T07:37:14.878Z,123.31
2023-03-29T07:38:14.534Z,125.25
2023-03-29T07:39:14.539Z,129.30
2023-03-29T07:40:14.537Z,146.67
2023-03-29T07:41:14.605Z,170.97
2023-03-29T07:42:14.663Z,207.72
2023-03-29T07:43:14.704Z,404.59
2023-03-29T07:44:14.715Z,391.29
2023-03-29T07:45:14.763Z,229.36
2023-03-29T07:46:14.782Z,193.08
2023-03-29T07:47:14.736Z,164.69
2023-03-29T07:48:14.796Z,158.66
2023-03-29T07:49:14.890Z,163.60
2023-03-29T07:50:14.863Z,208.20
2023-03-29T07:51:14.913Z,322.23
2023-03-29T07:52:14.978Z,254.87
2023-03-29T07:53:15.018Z,226.52
2023-03-29T07:54:15.062Z,256.43
2023-03-29T07:55:15.366Z,260.99
2023-03-29T07:56:15.128Z,241.82
2023-03-29T07:57:15.173Z,203.44
2023-03-29T07:58:15.173Z,247.32
2023-03-29T07:59:15.190Z,218.49
2023-03-29T08:00:15.443Z,227.19
2023-03-29T08:01:17.175Z,196.17
2023-03-29T08:02:15.204Z,190.94
2023-03-29T08:03:15.360Z,185.96
2023-03-29T08:04:15.235Z,183.11
2023-03-29T08:05:18.990Z,186.29
2023-03-29T08:06:16.178Z,185.52
2023-03-29T08:07:17.637Z,175.13
2023-03-29T08:08:15.156Z,178.09
2023-03-29T08:09:15.169Z,181.56
2023-03-29T08:10:15.146Z,187.15
2023-03-29T08:11:15.139Z,205.78
2023-03-29T08:12:15.163Z,213.78
2023-03-29T08:13:15.135Z,187.15
2023-03-29T08:14:15.130Z,178.65
2023-03-29T08:15:15.392Z,123.40
2023-03-29T08:16:15.183Z,110.33
2023-03-29T08:17:15.095Z,95.53
2023-03-29T08:18:15.141Z,92.84
2023-03-29T08:19:15.083Z,92.91
2023-03-29T08:20:15.408Z,96.07
2023-03-29T08:21:15.087Z,98.97
2023-03-29T08:22:15.089Z,85.99
2023-03-29T08:23:15.057Z,93.49
2023-03-29T08:24:15.083Z,107.11
2023-03-29T08:25:15.426Z,113.63
2023-03-29T08:26:15.057Z,116.47
2023-03-29T08:27:15.035Z,121.78
2023-03-29T08:28:15.406Z,130.81
2023-03-29T08:29:15.029Z,134.77
2023-03-29T08:30:15.039Z,133.52
2023-03-29T08:31:15.046Z,133.78
2023-03-29T08:32:15.012Z,134.33
2023-03-29T08:33:15.110Z,134.12
2023-03-29T08:34:15.004Z,137.03
2023-03-29T08:35:15.001Z,140.30
2023-03-29T08:36:15.061Z,182.43
2023-03-29T08:37:15.009Z,191.04
2023-03-29T08:38:15.013Z,186.79
2023-03-29T08:39:15.836Z,189.57
2023-03-29T08:40:14.953Z,191.78
2023-03-29T08:41:14.958Z,191.95
2023-03-29T08:42:14.937Z,190.70
2023-03-29T08:43:15.394Z,189.09
2023-03-29T08:44:14.929Z,186.27
2023-03-29T08:45:14.936Z,173.52
2023-03-29T08:46:15.061Z,165.27
2023-03-29T08:47:15.066Z,155.80
2023-03-29T08:48:15.115Z,152.51
2023-03-29T08:49:15.185Z,158.29
2023-03-29T08:50:15.215Z,149.52
2023-03-29T08:51:15.265Z,155.16
2023-03-29T08:52:15.327Z,155.80
2023-03-29T08:53:15.422Z,158.89
2023-03-29T08:54:15.458Z,160.94
2023-03-29T08:55:15.543Z,165.61
2023-03-29T08:56:15.592Z,165.93
2023-03-29T08:57:15.686Z,163.74
2023-03-29T08:58:15.731Z,162.51
2023-03-29T08:59:15.760Z,161.36
2023-03-29T09:00:15.834Z,160.78
2023-03-29T09:01:15.979Z,160.93
2023-03-29T09:02:15.992Z,159.51
2023-03-29T09:03:16.128Z,157.86
2023-03-29T09:04:16.061Z,159.29
2023-03-29T09:05:16.082Z,158.06
2023-03-29T09:06:16.130Z,158.21
2023-03-29T09:07:16.139Z,155.80
2023-03-29T09:08:16.173Z,156.24
2023-03-29T09:09:16.223Z,155.64
2023-03-29T09:10:16.248Z,155.54
2023-03-29T09:11:16.325Z,156.10
2023-03-29T09:12:16.336Z,154.39
2023-03-29T09:13:16.486Z,154.38
2023-03-29T09:14:16.453Z,154.33
2023-03-29T09:15:16.524Z,153.97
2023-03-29T09:16:16.620Z,154.19
2023-03-29T09:17:16.648Z,154.37
2023-03-29T09:18:17.014Z,154.80
2023-03-29T09:19:16.740Z,155.57
2023-03-29T09:20:16.845Z,155.38
2023-03-29T09:21:16.879Z,155.70
2023-03-29T09:22:17.021Z,156.79
2023-03-29T09:23:17.413Z,171.94
2023-03-29T09:24:17.085Z,175.25
2023-03-29T09:25:17.111Z,161.40
2023-03-29T09:26:17.226Z,166.61
2023-03-29T09:27:17.262Z,158.61
2023-03-29T09:28:17.410Z,154.93
2023-03-29T09:29:17.368Z,154.17
2023-03-29T09:30:17.408Z,152.51
2023-03-29T09:31:17.543Z,153.11
2023-03-29T09:32:17.516Z,152.86
2023-03-29T09:33:17.917Z,169.53
2023-03-29T09:34:17.605Z,164.26
2023-03-29T09:35:17.667Z,161.02
2023-03-29T09:36:17.708Z,161.25
2023-03-29T09:37:17.710Z,160.35
2023-03-29T09:38:17.756Z,160.15
2023-03-29T09:39:17.778Z,160.00
2023-03-29T09:40:17.847Z,158.54
2023-03-29T09:41:17.775Z,156.98
2023-03-29T09:42:17.806Z,154.22
2023-03-29T09:43:17.778Z,155.10
2023-03-29T09:44:30.301Z,152.98
2023-03-29T09:45:18.786Z,153.02
2023-03-29T09:46:17.870Z,152.96
2023-03-29T09:47:17.765Z,151.42
2023-03-29T09:48:17.933Z,150.75
2023-03-29T09:49:17.783Z,149.98
2023-03-29T09:50:30.271Z,149.80
2023-03-29T09:51:18.726Z,149.28
2023-03-29T09:52:17.730Z,147.54
2023-03-29T09:53:17.742Z,143.34
2023-03-29T09:54:17.726Z,143.48
2023-03-29T09:55:17.825Z,181.52
2023-03-29T09:56:17.706Z,179.39
2023-03-29T09:57:17.721Z,176.36
2023-03-29T09:58:17.709Z,181.20
2023-03-29T09:59:17.689Z,176.21
2023-03-29T10:00:17.682Z,161.99
2023-03-29T10:01:17.766Z,155.58
2023-03-29T10:02:17.678Z,150.98
2023-03-29T10:03:17.936Z,151.98
2023-03-29T10:04:18.023Z,150.66
2023-03-29T10:05:17.669Z,149.76
2023-03-29T10:06:17.682Z,146.91
2023-03-29T10:07:17.684Z,145.84
2023-03-29T10:08:19.462Z,144.74
2023-03-29T10:09:17.948Z,141.57
2023-03-29T10:10:17.757Z,139.98
2023-03-29T10:11:17.762Z,140.33
2023-03-29T10:12:17.809Z,139.57
2023-03-29T10:13:17.849Z,138.71
2023-03-29T10:14:17.859Z,139.63
2023-03-29T10:15:29.334Z,139.03
2023-03-29T10:16:18.942Z,137.91
2023-03-29T10:18:36.317Z,25.00
2023-03-29T10:19:36.517Z,25.00
2023-03-29T10:20:36.298Z,25.00
2023-03-29T10:21:36.296Z,25.00
2023-03-29T10:22:36.356Z,25.00
2023-03-29T10:23:36.412Z,52.01
2023-03-29T10:24:36.512Z,22.90
2023-03-29T10:25:36.490Z,61.61
2023-03-29T10:26:36.491Z,58.88
2023-03-29T10:27:36.537Z,59.27
2023-03-29T10:28:36.571Z,56.36
2023-03-29T10:29:36.621Z,45.45
2023-03-29T10:30:36.668Z,46.54
2023-03-29T10:31:36.784Z,44.37
2023-03-29T10:32:36.827Z,50.96
2023-03-29T10:33:36.827Z,50.93
2023-03-29T10:34:36.877Z,42.42
2023-03-29T10:35:36.962Z,38.80
2023-03-29T10:36:36.971Z,34.48
2023-03-29T10:37:37.011Z,35.52
2023-03-29T10:38:37.047Z,34.04
2023-03-29T10:39:37.064Z,29.05
2023-03-29T10:40:37.124Z,29.26
2023-03-29T10:41:37.147Z,31.35
2023-03-29T10:42:37.155Z,27.38
2023-03-29T10:43:37.213Z,29.07
2023-03-29T10:44:37.208Z,26.46
2023-03-29T10:45:37.221Z,25.74
2023-03-29T10:46:37.347Z,26.71
2023-03-29T10:47:37.288Z,26.48
2023-03-29T10:48:37.300Z,25.58
2023-03-29T10:49:37.331Z,27.50
2023-03-29T10:50:37.337Z,29.28
2023-03-29T10:51:37.371Z,30.24
2023-03-29T10:52:37.412Z,38.60
2023-03-29T10:53:37.419Z,27.07
2023-03-29T10:54:37.440Z,36.55
2023-03-29T10:55:37.478Z,41.69
2023-03-29T10:56:37.515Z,48.00
2023-03-29T10:57:37.764Z,39.22
2023-03-29T10:58:37.551Z,45.05
2023-03-29T10:59:38.046Z,48.38
2023-03-29T11:00:38.015Z,42.44
2023-03-29T11:01:37.762Z,46.01
2023-03-29T11:02:37.781Z,50.06
2023-03-29T11:03:37.882Z,51.40
2023-03-29T11:04:37.689Z,45.81
2023-03-29T11:05:37.719Z,32.46
2023-03-29T11:06:37.745Z,32.94
2023-03-29T11:07:37.764Z,30.16
2023-03-29T11:08:37.785Z,33.99
2023-03-29T11:09:37.799Z,45.26
2023-03-29T11:10:37.830Z,45.25
2023-03-29T11:11:37.870Z,36.06
2023-03-29T11:12:37.893Z,45.89
2023-03-29T11:13:37.916Z,24.36
2023-03-29T11:14:37.933Z,44.09
2023-03-29T11:15:38.051Z,56.65
2023-03-29T11:16:37.981Z,69.13
2023-03-29T11:17:38.070Z,66.57
2023-03-29T11:18:38.040Z,66.55
2023-03-29T11:19:38.044Z,81.69
2023-03-29T11:20:38.091Z,109.75
2023-03-29T11:21:38.130Z,134.36
2023-03-29T11:22:38.173Z,150.98
2023-03-29T11:23:38.205Z,159.91
2023-03-29T11:24:38.240Z,181.52
2023-03-29T11:25:38.277Z,187.24
2023-03-29T11:26:38.298Z,199.40
2023-03-29T11:27:38.343Z,218.09
2023-03-29T11:28:38.406Z,227.87
2023-03-29T11:29:38.456Z,250.57
2023-03-29T11:30:38.501Z,253.73
2023-03-29T11:31:39.249Z,247.09
2023-03-29T11:32:38.690Z,249.45
2023-03-29T11:33:38.679Z,250.85
2023-03-29T11:34:38.718Z,249.00
2023-03-29T11:35:38.828Z,248.86
2023-03-29T11:36:38.856Z,246.91
2023-03-29T11:37:38.876Z,242.58
2023-03-29T11:38:38.921Z,245.53
2023-03-29T11:39:38.989Z,246.15
2023-03-29T11:40:39.045Z,245.39
2023-03-29T11:41:39.103Z,249.24
2023-03-29T11:42:39.139Z,248.92
2023-03-29T11:43:39.205Z,249.76
2023-03-29T11:44:39.257Z,249.61
2023-03-29T11:45:39.323Z,245.60
2023-03-29T11:46:39.401Z,242.74
2023-03-29T11:47:39.489Z,244.44
2023-03-29T11:48:39.494Z,243.97
2023-03-29T11:49:39.583Z,243.38
2023-03-29T11:50:39.647Z,242.20
2023-03-29T11:51:39.705Z,240.51
2023-03-29T11:52:39.808Z,238.27
2023-03-29T11:53:39.812Z,244.66
2023-03-29T11:54:39.878Z,237.50
2023-03-29T11:55:40.066Z,238.03
2023-03-29T11:56:40.003Z,239.06
2023-03-29T11:57:40.064Z,234.11
2023-03-29T11:58:40.058Z,237.19
2023-03-29T11:59:40.121Z,233.84
2023-03-29T12:00:40.150Z,230.47
2023-03-29T12:01:40.236Z,231.91
2023-03-29T12:02:40.708Z,232.97
2023-03-29T12:03:40.416Z,227.71
2023-03-29T12:04:40.321Z,227.22
2023-03-29T12:05:40.357Z,227.82
2023-03-29T12:06:40.392Z,224.99
2023-03-29T12:07:40.449Z,227.50
2023-03-29T12:08:40.464Z,225.31
2023-03-29T12:09:40.493Z,224.96
2023-03-29T12:10:40.579Z,220.94
2023-03-29T12:11:40.568Z,219.95
2023-03-29T12:12:41.091Z,217.89
2023-03-29T12:13:40.620Z,217.97
2023-03-29T12:14:40.682Z,217.39
2023-03-29T12:15:40.693Z,212.16
2023-03-29T12:16:40.847Z,211.93
2023-03-29T12:17:40.811Z,211.84
2023-03-29T12:18:40.794Z,211.10
2023-03-29T12:19:43.321Z,209.51
2023-03-29T12:20:40.812Z,208.05
2023-03-29T12:21:40.821Z,208.84
2023-03-29T12:22:40.804Z,205.47
2023-03-29T12:23:40.797Z,203.21
2023-03-29T12:24:40.790Z,203.38
2023-03-29T12:25:40.782Z,201.63
2023-03-29T12:26:40.788Z,200.01
2023-03-29T12:27:40.775Z,279.27
2023-03-29T12:28:40.768Z,215.57
2023-03-29T12:29:40.772Z,182.64
2023-03-29T12:30:40.754Z,196.21
2023-03-29T12:31:40.787Z,186.18